sensor_id;sensor_type;location;lat;lon;timestamp;P1;durP1;ratioP1;P2;durP2;ratioP2
7316;SDS011;3699;51.462;6.696;2024-02-26T00:00:22;4.70;;;3.23;;
7316;SDS011;3699;51.462;6.696;2024-02-26T00:02:49;5.33;;;3.00;;
7316;SDS011;3699;51.462;6.696;2024-02-26T00:05:18;5.47;;;3.27;;
7316;SDS011;3699;51.462;6.696;2024-02-26T00:07:45;4.23;;;3.33;;
7316;SDS011;3699;51.462;6.696;2024-02-26T00:10:12;3.73;;;3.27;;
7316;SDS011;3699;51.462;6.696;2024-02-26T00:12:39;5.77;;;3.20;;
7316;SDS011;3699;51.462;6.696;2024-02-26T00:15:06;5.40;;;3.40;;
7316;SDS011;3699;51.462;6.696;2024-02-26T00:17:34;6.57;;;2.90;;
7316;SDS011;3699;51.462;6.696;2024-02-26T00:20:01;9.43;;;3.23;;
7316;SDS011;3699;51.462;6.696;2024-02-26T00:22:30;3.87;;;2.93;;
7316;SDS011;3699;51.462;6.696;2024-02-26T00:24:57;2.93;;;2.63;;
7316;SDS011;3699;51.462;6.696;2024-02-26T00:27:24;4.33;;;2.90;;
7316;SDS011;3699;51.462;6.696;2024-02-26T00:29:51;4.83;;;3.17;;
7316;SDS011;3699;51.462;6.696;2024-02-26T00:32:18;4.87;;;3.70;;
7316;SDS011;3699;51.462;6.696;2024-02-26T00:34:45;3.20;;;2.90;;
7316;SDS011;3699;51.462;6.696;2024-02-26T00:37:12;4.87;;;3.60;;
7316;SDS011;3699;51.462;6.696;2024-02-26T00:39:40;3.63;;;3.17;;
7316;SDS011;3699;51.462;6.696;2024-02-26T00:42:08;7.97;;;3.47;;
7316;SDS011;3699;51.462;6.696;2024-02-26T00:44:35;4.67;;;2.93;;
7316;SDS011;3699;51.462;6.696;2024-02-26T00:47:02;4.83;;;2.70;;
7316;SDS011;3699;51.462;6.696;2024-02-26T00:49:29;3.77;;;3.27;;
7316;SDS011;3699;51.462;6.696;2024-02-26T00:51:55;6.33;;;3.10;;
7316;SDS011;3699;51.462;6.696;2024-02-26T00:54:22;3.50;;;2.70;;
7316;SDS011;3699;51.462;6.696;2024-02-26T00:56:51;5.87;;;3.07;;
7316;SDS011;3699;51.462;6.696;2024-02-26T00:59:18;3.37;;;2.80;;
7316;SDS011;3699;51.462;6.696;2024-02-26T01:01:45;3.83;;;3.03;;
7316;SDS011;3699;51.462;6.696;2024-02-26T01:04:12;5.63;;;2.97;;
7316;SDS011;3699;51.462;6.696;2024-02-26T01:06:39;5.57;;;3.60;;
7316;SDS011;3699;51.462;6.696;2024-02-26T01:09:05;5.47;;;3.00;;
7316;SDS011;3699;51.462;6.696;2024-02-26T01:11:33;7.17;;;3.20;;
7316;SDS011;3699;51.462;6.696;2024-02-26T01:14:01;6.30;;;3.03;;
7316;SDS011;3699;51.462;6.696;2024-02-26T01:16:28;6.70;;;2.90;;
7316;SDS011;3699;51.462;6.696;2024-02-26T01:18:57;5.20;;;3.30;;
7316;SDS011;3699;51.462;6.696;2024-02-26T01:21:24;3.53;;;2.77;;
7316;SDS011;3699;51.462;6.696;2024-02-26T01:23:51;4.87;;;3.03;;
7316;SDS011;3699;51.462;6.696;2024-02-26T01:26:19;5.97;;;2.67;;
7316;SDS011;3699;51.462;6.696;2024-02-26T01:28:47;6.17;;;3.00;;
7316;SDS011;3699;51.462;6.696;2024-02-26T01:31:15;5.20;;;4.13;;
7316;SDS011;3699;51.462;6.696;2024-02-26T01:33:42;3.53;;;2.90;;
7316;SDS011;3699;51.462;6.696;2024-02-26T01:36:09;3.00;;;2.70;;
7316;SDS011;3699;51.462;6.696;2024-02-26T01:38:36;2.67;;;2.47;;
7316;SDS011;3699;51.462;6.696;2024-02-26T01:41:03;4.00;;;2.77;;
7316;SDS011;3699;51.462;6.696;2024-02-26T01:43:31;7.40;;;2.90;;
7316;SDS011;3699;51.462;6.696;2024-02-26T01:45:57;3.47;;;2.60;;
7316;SDS011;3699;51.462;6.696;2024-02-26T01:48:26;5.40;;;2.60;;
7316;SDS011;3699;51.462;6.696;2024-02-26T01:50:53;3.03;;;2.67;;
7316;SDS011;3699;51.462;6.696;2024-02-26T01:53:20;3.83;;;2.90;;
7316;SDS011;3699;51.462;6.696;2024-02-26T01:55:47;3.43;;;2.70;;
7316;SDS011;3699;51.462;6.696;2024-02-26T01:58:14;3.40;;;3.03;;
7316;SDS011;3699;51.462;6.696;2024-02-26T02:00:42;4.00;;;2.80;;
7316;SDS011;3699;51.462;6.696;2024-02-26T02:03:09;3.13;;;2.83;;
7316;SDS011;3699;51.462;6.696;2024-02-26T02:05:37;4.23;;;3.17;;
7316;SDS011;3699;51.462;6.696;2024-02-26T02:08:07;3.63;;;3.00;;
7316;SDS011;3699;51.462;6.696;2024-02-26T02:10:34;4.07;;;2.73;;
7316;SDS011;3699;51.462;6.696;2024-02-26T02:13:01;3.97;;;2.80;;
7316;SDS011;3699;51.462;6.696;2024-02-26T02:15:28;4.63;;;3.20;;
7316;SDS011;3699;51.462;6.696;2024-02-26T02:17:55;3.03;;;2.77;;
7316;SDS011;3699;51.462;6.696;2024-02-26T02:20:25;5.73;;;2.97;;
7316;SDS011;3699;51.462;6.696;2024-02-26T02:22:53;5.13;;;3.40;;
7316;SDS011;3699;51.462;6.696;2024-02-26T02:25:20;4.17;;;3.53;;
7316;SDS011;3699;51.462;6.696;2024-02-26T02:27:47;4.03;;;2.97;;
7316;SDS011;3699;51.462;6.696;2024-02-26T02:30:14;4.13;;;3.10;;
7316;SDS011;3699;51.462;6.696;2024-02-26T02:32:41;3.40;;;3.10;;
7316;SDS011;3699;51.462;6.696;2024-02-26T02:35:08;3.40;;;3.10;;
7316;SDS011;3699;51.462;6.696;2024-02-26T02:37:37;4.13;;;3.47;;
7316;SDS011;3699;51.462;6.696;2024-02-26T02:40:04;3.67;;;3.20;;
7316;SDS011;3699;51.462;6.696;2024-02-26T02:42:31;5.47;;;4.10;;
7316;SDS011;3699;51.462;6.696;2024-02-26T02:44:58;4.07;;;3.30;;
7316;SDS011;3699;51.462;6.696;2024-02-26T02:47:25;5.23;;;3.47;;
7316;SDS011;3699;51.462;6.696;2024-02-26T02:49:52;5.67;;;3.67;;
7316;SDS011;3699;51.462;6.696;2024-02-26T02:52:19;4.20;;;3.50;;
7316;SDS011;3699;51.462;6.696;2024-02-26T02:54:47;4.87;;;3.47;;
7316;SDS011;3699;51.462;6.696;2024-02-26T02:57:13;5.40;;;3.70;;
7316;SDS011;3699;51.462;6.696;2024-02-26T02:59:40;5.70;;;3.70;;
7316;SDS011;3699;51.462;6.696;2024-02-26T03:02:07;7.20;;;5.30;;
7316;SDS011;3699;51.462;6.696;2024-02-26T03:04:34;5.53;;;3.53;;
7316;SDS011;3699;51.462;6.696;2024-02-26T03:07:01;4.10;;;3.03;;
7316;SDS011;3699;51.462;6.696;2024-02-26T03:09:29;3.67;;;3.37;;
7316;SDS011;3699;51.462;6.696;2024-02-26T03:11:58;6.03;;;3.50;;
7316;SDS011;3699;51.462;6.696;2024-02-26T03:14:25;5.03;;;3.20;;
7316;SDS011;3699;51.462;6.696;2024-02-26T03:16:53;6.53;;;3.33;;
7316;SDS011;3699;51.462;6.696;2024-02-26T03:19:20;6.33;;;3.27;;
7316;SDS011;3699;51.462;6.696;2024-02-26T03:21:47;4.67;;;3.10;;
7316;SDS011;3699;51.462;6.696;2024-02-26T03:24:13;4.30;;;3.37;;
7316;SDS011;3699;51.462;6.696;2024-02-26T03:26:40;7.80;;;3.87;;
7316;SDS011;3699;51.462;6.696;2024-02-26T03:29:09;4.33;;;3.47;;
7316;SDS011;3699;51.462;6.696;2024-02-26T03:31:36;3.83;;;3.00;;
7316;SDS011;3699;51.462;6.696;2024-02-26T03:34:02;6.03;;;3.40;;
7316;SDS011;3699;51.462;6.696;2024-02-26T03:36:29;4.20;;;3.60;;
7316;SDS011;3699;51.462;6.696;2024-02-26T03:38:56;4.07;;;3.53;;
7316;SDS011;3699;51.462;6.696;2024-02-26T03:41:23;4.23;;;3.27;;
7316;SDS011;3699;51.462;6.696;2024-02-26T03:43:50;4.70;;;3.73;;
7316;SDS011;3699;51.462;6.696;2024-02-26T03:46:18;5.00;;;3.63;;
7316;SDS011;3699;51.462;6.696;2024-02-26T03:48:45;6.30;;;4.03;;
7316;SDS011;3699;51.462;6.696;2024-02-26T03:51:12;5.60;;;3.60;;
7316;SDS011;3699;51.462;6.696;2024-02-26T03:53:39;3.63;;;3.30;;
7316;SDS011;3699;51.462;6.696;2024-02-26T03:56:06;4.30;;;3.50;;
7316;SDS011;3699;51.462;6.696;2024-02-26T03:58:33;3.70;;;3.40;;
7316;SDS011;3699;51.462;6.696;2024-02-26T04:01:00;4.00;;;3.60;;
7316;SDS011;3699;51.462;6.696;2024-02-26T04:03:29;7.10;;;4.00;;
7316;SDS011;3699;51.462;6.696;2024-02-26T04:05:56;5.37;;;3.90;;
7316;SDS011;3699;51.462;6.696;2024-02-26T04:08:23;5.87;;;3.80;;
7316;SDS011;3699;51.462;6.696;2024-02-26T04:10:49;4.20;;;3.50;;
7316;SDS011;3699;51.462;6.696;2024-02-26T04:13:17;5.13;;;4.00;;
7316;SDS011;3699;51.462;6.696;2024-02-26T04:15:44;5.13;;;4.07;;
7316;SDS011;3699;51.462;6.696;2024-02-26T04:18:12;5.43;;;4.17;;
7316;SDS011;3699;51.462;6.696;2024-02-26T04:20:40;10.43;;;3.90;;
7316;SDS011;3699;51.462;6.696;2024-02-26T04:23:08;4.47;;;3.80;;
7316;SDS011;3699;51.462;6.696;2024-02-26T04:25:35;5.27;;;4.13;;
7316;SDS011;3699;51.462;6.696;2024-02-26T04:28:02;5.07;;;3.93;;
7316;SDS011;3699;51.462;6.696;2024-02-26T04:30:29;4.60;;;3.60;;
7316;SDS011;3699;51.462;6.696;2024-02-26T04:32:56;6.37;;;3.90;;
7316;SDS011;3699;51.462;6.696;2024-02-26T04:35:22;3.80;;;3.40;;
7316;SDS011;3699;51.462;6.696;2024-02-26T04:37:51;3.90;;;3.60;;
7316;SDS011;3699;51.462;6.696;2024-02-26T04:40:17;5.03;;;3.90;;
7316;SDS011;3699;51.462;6.696;2024-02-26T04:42:44;5.17;;;3.70;;
7316;SDS011;3699;51.462;6.696;2024-02-26T04:45:11;3.90;;;3.40;;
7316;SDS011;3699;51.462;6.696;2024-02-26T04:47:38;4.93;;;3.83;;
7316;SDS011;3699;51.462;6.696;2024-02-26T04:50:06;3.47;;;3.17;;
7316;SDS011;3699;51.462;6.696;2024-02-26T04:52:33;5.30;;;4.17;;
7316;SDS011;3699;51.462;6.696;2024-02-26T04:55:01;7.80;;;5.00;;
7316;SDS011;3699;51.462;6.696;2024-02-26T04:57:28;4.23;;;3.83;;
7316;SDS011;3699;51.462;6.696;2024-02-26T04:59:56;7.47;;;4.33;;
7316;SDS011;3699;51.462;6.696;2024-02-26T05:02:22;5.73;;;4.47;;
7316;SDS011;3699;51.462;6.696;2024-02-26T05:04:49;6.23;;;4.13;;
7316;SDS011;3699;51.462;6.696;2024-02-26T05:07:16;5.67;;;4.17;;
7316;SDS011;3699;51.462;6.696;2024-02-26T05:09:43;5.63;;;4.03;;
7316;SDS011;3699;51.462;6.696;2024-02-26T05:12:12;4.77;;;4.10;;
7316;SDS011;3699;51.462;6.696;2024-02-26T05:14:39;4.70;;;4.20;;
7316;SDS011;3699;51.462;6.696;2024-02-26T05:17:06;4.83;;;4.27;;
7316;SDS011;3699;51.462;6.696;2024-02-26T05:19:32;5.03;;;4.23;;
7316;SDS011;3699;51.462;6.696;2024-02-26T05:21:59;6.17;;;4.40;;
7316;SDS011;3699;51.462;6.696;2024-02-26T05:24:26;4.80;;;4.30;;
7316;SDS011;3699;51.462;6.696;2024-02-26T05:26:53;6.83;;;4.43;;
7316;SDS011;3699;51.462;6.696;2024-02-26T05:29:22;5.63;;;4.20;;
7316;SDS011;3699;51.462;6.696;2024-02-26T05:31:49;5.03;;;4.17;;
7316;SDS011;3699;51.462;6.696;2024-02-26T05:34:16;5.93;;;4.40;;
7316;SDS011;3699;51.462;6.696;2024-02-26T05:36:43;6.77;;;4.30;;
7316;SDS011;3699;51.462;6.696;2024-02-26T05:39:10;3.87;;;3.57;;
7316;SDS011;3699;51.462;6.696;2024-02-26T05:41:37;4.27;;;3.70;;
7316;SDS011;3699;51.462;6.696;2024-02-26T05:44:04;4.07;;;3.70;;
7316;SDS011;3699;51.462;6.696;2024-02-26T05:46:32;3.77;;;3.43;;
7316;SDS011;3699;51.462;6.696;2024-02-26T05:48:59;6.33;;;3.87;;
7316;SDS011;3699;51.462;6.696;2024-02-26T05:51:26;4.43;;;3.80;;
7316;SDS011;3699;51.462;6.696;2024-02-26T05:53:53;7.27;;;5.20;;
7316;SDS011;3699;51.462;6.696;2024-02-26T05:56:20;5.97;;;4.63;;
7316;SDS011;3699;51.462;6.696;2024-02-26T05:58:47;8.00;;;4.00;;
7316;SDS011;3699;51.462;6.696;2024-02-26T06:01:15;6.20;;;4.17;;
7316;SDS011;3699;51.462;6.696;2024-02-26T06:03:44;4.70;;;4.17;;
7316;SDS011;3699;51.462;6.696;2024-02-26T06:06:10;6.37;;;4.17;;
7316;SDS011;3699;51.462;6.696;2024-02-26T06:08:38;4.93;;;4.43;;
7316;SDS011;3699;51.462;6.696;2024-02-26T06:11:05;4.80;;;4.40;;
7316;SDS011;3699;51.462;6.696;2024-02-26T06:13:32;6.20;;;4.47;;
7316;SDS011;3699;51.462;6.696;2024-02-26T06:15:59;7.57;;;4.83;;
7316;SDS011;3699;51.462;6.696;2024-02-26T06:18:27;8.17;;;4.70;;
7316;SDS011;3699;51.462;6.696;2024-02-26T06:20:55;6.53;;;4.30;;
7316;SDS011;3699;51.462;6.696;2024-02-26T06:23:22;5.60;;;4.30;;
7316;SDS011;3699;51.462;6.696;2024-02-26T06:25:49;6.60;;;4.63;;
7316;SDS011;3699;51.462;6.696;2024-02-26T06:28:16;6.80;;;4.20;;
7316;SDS011;3699;51.462;6.696;2024-02-26T06:30:43;9.73;;;4.73;;
7316;SDS011;3699;51.462;6.696;2024-02-26T06:33:10;5.40;;;4.13;;
7316;SDS011;3699;51.462;6.696;2024-02-26T06:35:37;6.77;;;4.43;;
7316;SDS011;3699;51.462;6.696;2024-02-26T06:38:05;5.53;;;4.37;;
7316;SDS011;3699;51.462;6.696;2024-02-26T06:40:33;7.17;;;4.97;;
7316;SDS011;3699;51.462;6.696;2024-02-26T06:42:59;6.00;;;4.70;;
7316;SDS011;3699;51.462;6.696;2024-02-26T06:45:26;8.67;;;4.57;;
7316;SDS011;3699;51.462;6.696;2024-02-26T06:47:54;6.20;;;4.67;;
7316;SDS011;3699;51.462;6.696;2024-02-26T06:50:21;6.77;;;4.67;;
7316;SDS011;3699;51.462;6.696;2024-02-26T06:52:48;7.93;;;5.07;;
7316;SDS011;3699;51.462;6.696;2024-02-26T06:55:17;5.70;;;4.57;;
7316;SDS011;3699;51.462;6.696;2024-02-26T06:57:43;8.63;;;4.73;;
7316;SDS011;3699;51.462;6.696;2024-02-26T07:00:11;6.80;;;4.70;;
7316;SDS011;3699;51.462;6.696;2024-02-26T07:02:40;5.17;;;4.17;;
7316;SDS011;3699;51.462;6.696;2024-02-26T07:05:07;4.83;;;4.13;;
7316;SDS011;3699;51.462;6.696;2024-02-26T07:07:34;6.10;;;4.67;;
7316;SDS011;3699;51.462;6.696;2024-02-26T07:10:02;6.10;;;4.50;;
7316;SDS011;3699;51.462;6.696;2024-02-26T07:12:32;6.87;;;4.10;;
7316;SDS011;3699;51.462;6.696;2024-02-26T07:14:58;9.03;;;4.73;;
7316;SDS011;3699;51.462;6.696;2024-02-26T07:17:25;4.47;;;4.03;;
7316;SDS011;3699;51.462;6.696;2024-02-26T07:19:52;6.47;;;4.40;;
7316;SDS011;3699;51.462;6.696;2024-02-26T07:22:19;5.70;;;4.70;;
7316;SDS011;3699;51.462;6.696;2024-02-26T07:24:45;9.53;;;5.07;;
7316;SDS011;3699;51.462;6.696;2024-02-26T07:27:12;6.47;;;4.27;;
7316;SDS011;3699;51.462;6.696;2024-02-26T07:29:40;7.07;;;4.73;;
7316;SDS011;3699;51.462;6.696;2024-02-26T07:32:07;5.70;;;4.37;;
7316;SDS011;3699;51.462;6.696;2024-02-26T07:34:34;8.10;;;4.97;;
7316;SDS011;3699;51.462;6.696;2024-02-26T07:37:02;5.30;;;4.43;;
7316;SDS011;3699;51.462;6.696;2024-02-26T07:39:29;6.37;;;4.73;;
7316;SDS011;3699;51.462;6.696;2024-02-26T07:41:56;4.83;;;4.30;;
7316;SDS011;3699;51.462;6.696;2024-02-26T07:44:23;7.53;;;4.60;;
7316;SDS011;3699;51.462;6.696;2024-02-26T07:46:51;7.33;;;4.70;;
7316;SDS011;3699;51.462;6.696;2024-02-26T07:49:19;8.90;;;4.67;;
7316;SDS011;3699;51.462;6.696;2024-02-26T07:51:46;7.17;;;5.30;;
7316;SDS011;3699;51.462;6.696;2024-02-26T07:54:13;4.67;;;4.00;;
7316;SDS011;3699;51.462;6.696;2024-02-26T07:56:41;6.60;;;4.40;;
7316;SDS011;3699;51.462;6.696;2024-02-26T07:59:08;7.07;;;4.97;;
7316;SDS011;3699;51.462;6.696;2024-02-26T08:01:35;5.70;;;4.93;;
7316;SDS011;3699;51.462;6.696;2024-02-26T08:04:05;5.63;;;4.73;;
7316;SDS011;3699;51.462;6.696;2024-02-26T08:06:32;9.87;;;4.90;;
7316;SDS011;3699;51.462;6.696;2024-02-26T08:08:58;7.00;;;5.27;;
7316;SDS011;3699;51.462;6.696;2024-02-26T08:11:25;5.53;;;4.47;;
7316;SDS011;3699;51.462;6.696;2024-02-26T08:13:53;5.77;;;4.53;;
7316;SDS011;3699;51.462;6.696;2024-02-26T08:16:19;5.63;;;4.40;;
7316;SDS011;3699;51.462;6.696;2024-02-26T08:18:46;5.53;;;4.60;;
7316;SDS011;3699;51.462;6.696;2024-02-26T08:21:14;8.83;;;5.70;;
7316;SDS011;3699;51.462;6.696;2024-02-26T08:23:42;4.70;;;4.10;;
7316;SDS011;3699;51.462;6.696;2024-02-26T08:26:09;8.20;;;4.87;;
7316;SDS011;3699;51.462;6.696;2024-02-26T08:28:36;4.20;;;3.80;;
7316;SDS011;3699;51.462;6.696;2024-02-26T08:31:03;6.73;;;4.57;;
7316;SDS011;3699;51.462;6.696;2024-02-26T08:33:30;5.60;;;4.53;;
7316;SDS011;3699;51.462;6.696;2024-02-26T08:35:59;5.03;;;4.37;;
7316;SDS011;3699;51.462;6.696;2024-02-26T08:38:27;8.83;;;5.27;;
7316;SDS011;3699;51.462;6.696;2024-02-26T08:40:53;4.80;;;4.27;;
7316;SDS011;3699;51.462;6.696;2024-02-26T08:43:20;7.27;;;4.73;;
7316;SDS011;3699;51.462;6.696;2024-02-26T08:45:47;10.17;;;4.93;;
7316;SDS011;3699;51.462;6.696;2024-02-26T08:48:14;7.33;;;4.53;;
7316;SDS011;3699;51.462;6.696;2024-02-26T08:50:40;7.43;;;4.57;;
7316;SDS011;3699;51.462;6.696;2024-02-26T08:53:07;7.77;;;4.67;;
7316;SDS011;3699;51.462;6.696;2024-02-26T08:55:35;4.97;;;4.20;;
7316;SDS011;3699;51.462;6.696;2024-02-26T08:58:02;9.40;;;5.80;;
7316;SDS011;3699;51.462;6.696;2024-02-26T09:00:29;6.47;;;4.47;;
7316;SDS011;3699;51.462;6.696;2024-02-26T09:02:56;8.27;;;4.80;;
7316;SDS011;3699;51.462;6.696;2024-02-26T09:05:22;8.47;;;4.10;;
7316;SDS011;3699;51.462;6.696;2024-02-26T09:07:49;6.93;;;5.03;;
7316;SDS011;3699;51.462;6.696;2024-02-26T09:10:17;7.50;;;5.60;;
7316;SDS011;3699;51.462;6.696;2024-02-26T09:12:45;5.73;;;4.83;;
7316;SDS011;3699;51.462;6.696;2024-02-26T09:15:11;7.67;;;4.73;;
7316;SDS011;3699;51.462;6.696;2024-02-26T09:17:38;5.63;;;4.23;;
7316;SDS011;3699;51.462;6.696;2024-02-26T09:20:06;5.40;;;4.47;;
7316;SDS011;3699;51.462;6.696;2024-02-26T09:22:34;8.70;;;5.33;;
7316;SDS011;3699;51.462;6.696;2024-02-26T09:25:03;6.80;;;5.23;;
7316;SDS011;3699;51.462;6.696;2024-02-26T09:27:30;6.33;;;4.63;;
7316;SDS011;3699;51.462;6.696;2024-02-26T09:29:58;6.53;;;4.53;;
7316;SDS011;3699;51.462;6.696;2024-02-26T09:32:25;4.70;;;4.30;;
7316;SDS011;3699;51.462;6.696;2024-02-26T09:34:51;7.03;;;4.73;;
7316;SDS011;3699;51.462;6.696;2024-02-26T09:37:18;8.80;;;6.07;;
7316;SDS011;3699;51.462;6.696;2024-02-26T09:39:45;6.17;;;5.40;;
7316;SDS011;3699;51.462;6.696;2024-02-26T09:42:12;5.57;;;4.40;;
7316;SDS011;3699;51.462;6.696;2024-02-26T09:44:39;7.50;;;5.80;;
7316;SDS011;3699;51.462;6.696;2024-02-26T09:47:09;6.63;;;4.83;;
7316;SDS011;3699;51.462;6.696;2024-02-26T09:49:38;7.57;;;4.97;;
7316;SDS011;3699;51.462;6.696;2024-02-26T09:52:05;9.13;;;4.90;;
7316;SDS011;3699;51.462;6.696;2024-02-26T09:54:34;7.33;;;4.80;;
7316;SDS011;3699;51.462;6.696;2024-02-26T09:57:02;6.13;;;4.43;;
7316;SDS011;3699;51.462;6.696;2024-02-26T09:59:33;5.20;;;4.40;;
7316;SDS011;3699;51.462;6.696;2024-02-26T10:02:06;6.47;;;3.93;;
7316;SDS011;3699;51.462;6.696;2024-02-26T10:04:38;7.70;;;4.50;;
7316;SDS011;3699;51.462;6.696;2024-02-26T10:07:07;8.77;;;4.63;;
7316;SDS011;3699;51.462;6.696;2024-02-26T10:09:36;6.37;;;4.40;;
7316;SDS011;3699;51.462;6.696;2024-02-26T10:12:03;8.50;;;4.10;;
7316;SDS011;3699;51.462;6.696;2024-02-26T10:14:31;6.27;;;4.53;;
7316;SDS011;3699;51.462;6.696;2024-02-26T10:16:58;6.07;;;4.93;;
7316;SDS011;3699;51.462;6.696;2024-02-26T10:19:27;5.43;;;4.30;;
7316;SDS011;3699;51.462;6.696;2024-02-26T10:21:58;8.53;;;4.93;;
7316;SDS011;3699;51.462;6.696;2024-02-26T10:24:26;6.40;;;4.80;;
7316;SDS011;3699;51.462;6.696;2024-02-26T10:26:54;6.03;;;4.40;;
7316;SDS011;3699;51.462;6.696;2024-02-26T10:29:23;5.07;;;4.40;;
7316;SDS011;3699;51.462;6.696;2024-02-26T10:31:50;6.77;;;4.67;;
7316;SDS011;3699;51.462;6.696;2024-02-26T10:34:17;7.87;;;4.77;;
7316;SDS011;3699;51.462;6.696;2024-02-26T10:36:46;5.60;;;4.40;;
7316;SDS011;3699;51.462;6.696;2024-02-26T10:39:13;6.57;;;4.80;;
7316;SDS011;3699;51.462;6.696;2024-02-26T10:41:40;7.50;;;5.27;;
7316;SDS011;3699;51.462;6.696;2024-02-26T10:44:08;9.13;;;5.47;;
7316;SDS011;3699;51.462;6.696;2024-02-26T10:46:36;9.83;;;5.60;;
7316;SDS011;3699;51.462;6.696;2024-02-26T10:49:03;8.80;;;5.20;;
7316;SDS011;3699;51.462;6.696;2024-02-26T10:51:31;6.50;;;5.33;;
7316;SDS011;3699;51.462;6.696;2024-02-26T10:54:04;7.00;;;5.30;;
7316;SDS011;3699;51.462;6.696;2024-02-26T10:56:34;7.37;;;5.57;;
7316;SDS011;3699;51.462;6.696;2024-02-26T10:59:04;8.07;;;5.90;;
7316;SDS011;3699;51.462;6.696;2024-02-26T11:01:35;7.17;;;5.50;;
7316;SDS011;3699;51.462;6.696;2024-02-26T11:04:03;7.70;;;5.57;;
7316;SDS011;3699;51.462;6.696;2024-02-26T11:06:31;7.57;;;5.90;;
7316;SDS011;3699;51.462;6.696;2024-02-26T11:08:59;6.80;;;5.07;;
7316;SDS011;3699;51.462;6.696;2024-02-26T11:11:29;9.33;;;5.73;;
7316;SDS011;3699;51.462;6.696;2024-02-26T11:13:59;7.80;;;4.93;;
7316;SDS011;3699;51.462;6.696;2024-02-26T11:16:29;9.13;;;5.20;;
7316;SDS011;3699;51.462;6.696;2024-02-26T11:18:56;7.77;;;5.63;;
7316;SDS011;3699;51.462;6.696;2024-02-26T11:21:25;11.43;;;5.80;;
7316;SDS011;3699;51.462;6.696;2024-02-26T11:24:03;7.80;;;5.30;;
7316;SDS011;3699;51.462;6.696;2024-02-26T11:26:33;10.03;;;5.00;;
7316;SDS011;3699;51.462;6.696;2024-02-26T11:29:00;6.40;;;5.23;;
7316;SDS011;3699;51.462;6.696;2024-02-26T11:31:28;9.47;;;5.03;;
7316;SDS011;3699;51.462;6.696;2024-02-26T11:33:56;6.83;;;5.60;;
7316;SDS011;3699;51.462;6.696;2024-02-26T11:36:25;6.27;;;5.03;;
7316;SDS011;3699;51.462;6.696;2024-02-26T11:38:51;9.47;;;5.33;;
7316;SDS011;3699;51.462;6.696;2024-02-26T11:41:18;8.57;;;5.50;;
7316;SDS011;3699;51.462;6.696;2024-02-26T11:43:53;8.07;;;5.80;;
7316;SDS011;3699;51.462;6.696;2024-02-26T11:46:26;11.83;;;6.90;;
7316;SDS011;3699;51.462;6.696;2024-02-26T11:48:55;11.43;;;6.63;;
7316;SDS011;3699;51.462;6.696;2024-02-26T11:51:26;12.80;;;7.80;;
7316;SDS011;3699;51.462;6.696;2024-02-26T11:53:54;15.53;;;7.77;;
7316;SDS011;3699;51.462;6.696;2024-02-26T11:56:23;13.00;;;7.40;;
7316;SDS011;3699;51.462;6.696;2024-02-26T11:59:00;10.50;;;7.70;;
7316;SDS011;3699;51.462;6.696;2024-02-26T12:01:40;14.07;;;8.83;;
7316;SDS011;3699;51.462;6.696;2024-02-26T12:04:11;16.47;;;8.97;;
7316;SDS011;3699;51.462;6.696;2024-02-26T12:06:40;18.97;;;10.63;;
7316;SDS011;3699;51.462;6.696;2024-02-26T12:09:11;17.63;;;9.90;;
7316;SDS011;3699;51.462;6.696;2024-02-26T12:11:39;13.37;;;8.03;;
7316;SDS011;3699;51.462;6.696;2024-02-26T12:14:08;12.67;;;8.00;;
7316;SDS011;3699;51.462;6.696;2024-02-26T12:16:36;12.17;;;7.97;;
7316;SDS011;3699;51.462;6.696;2024-02-26T12:19:04;10.57;;;8.13;;
7316;SDS011;3699;51.462;6.696;2024-02-26T12:21:33;17.70;;;9.23;;
7316;SDS011;3699;51.462;6.696;2024-02-26T12:24:07;15.07;;;8.83;;
7316;SDS011;3699;51.462;6.696;2024-02-26T12:26:38;17.70;;;9.10;;
7316;SDS011;3699;51.462;6.696;2024-02-26T12:29:05;12.70;;;8.37;;
7316;SDS011;3699;51.462;6.696;2024-02-26T12:31:34;13.87;;;8.37;;
7316;SDS011;3699;51.462;6.696;2024-02-26T12:34:02;13.17;;;8.03;;
7316;SDS011;3699;51.462;6.696;2024-02-26T12:36:29;12.20;;;8.37;;
7316;SDS011;3699;51.462;6.696;2024-02-26T12:38:56;14.13;;;8.77;;
7316;SDS011;3699;51.462;6.696;2024-02-26T12:41:23;13.73;;;8.67;;
7316;SDS011;3699;51.462;6.696;2024-02-26T12:43:50;12.90;;;8.00;;
7316;SDS011;3699;51.462;6.696;2024-02-26T12:46:18;11.93;;;8.73;;
7316;SDS011;3699;51.462;6.696;2024-02-26T12:48:48;12.67;;;8.73;;
7316;SDS011;3699;51.462;6.696;2024-02-26T12:51:15;15.70;;;7.90;;
7316;SDS011;3699;51.462;6.696;2024-02-26T12:53:43;13.17;;;8.40;;
7316;SDS011;3699;51.462;6.696;2024-02-26T12:56:10;17.20;;;9.20;;
7316;SDS011;3699;51.462;6.696;2024-02-26T12:58:38;37.20;;;14.53;;
7316;SDS011;3699;51.462;6.696;2024-02-26T13:01:06;39.90;;;15.70;;
7316;SDS011;3699;51.462;6.696;2024-02-26T13:03:34;28.03;;;12.77;;
7316;SDS011;3699;51.462;6.696;2024-02-26T13:06:03;25.70;;;11.10;;
7316;SDS011;3699;51.462;6.696;2024-02-26T13:08:31;17.80;;;8.87;;
7316;SDS011;3699;51.462;6.696;2024-02-26T13:10:59;16.00;;;9.10;;
7316;SDS011;3699;51.462;6.696;2024-02-26T13:13:26;11.57;;;7.60;;
7316;SDS011;3699;51.462;6.696;2024-02-26T13:16:00;12.83;;;6.33;;
7316;SDS011;3699;51.462;6.696;2024-02-26T13:18:29;9.43;;;6.80;;
7316;SDS011;3699;51.462;6.696;2024-02-26T13:21:06;10.50;;;6.60;;
7316;SDS011;3699;51.462;6.696;2024-02-26T13:23:34;12.93;;;7.13;;
7316;SDS011;3699;51.462;6.696;2024-02-26T13:26:01;14.23;;;7.20;;
7316;SDS011;3699;51.462;6.696;2024-02-26T13:28:28;13.53;;;6.90;;
7316;SDS011;3699;51.462;6.696;2024-02-26T13:30:55;11.87;;;6.77;;
7316;SDS011;3699;51.462;6.696;2024-02-26T13:33:24;11.20;;;6.27;;
7316;SDS011;3699;51.462;6.696;2024-02-26T13:35:52;11.73;;;7.30;;
7316;SDS011;3699;51.462;6.696;2024-02-26T13:38:21;10.93;;;7.53;;
7316;SDS011;3699;51.462;6.696;2024-02-26T13:40:49;13.40;;;7.37;;
7316;SDS011;3699;51.462;6.696;2024-02-26T13:43:16;10.87;;;6.40;;
7316;SDS011;3699;51.462;6.696;2024-02-26T13:45:43;8.70;;;6.13;;
7316;SDS011;3699;51.462;6.696;2024-02-26T13:48:10;10.47;;;6.73;;
7316;SDS011;3699;51.462;6.696;2024-02-26T13:50:38;9.73;;;6.07;;
7316;SDS011;3699;51.462;6.696;2024-02-26T13:53:05;7.90;;;6.40;;
7316;SDS011;3699;51.462;6.696;2024-02-26T13:55:33;14.33;;;7.67;;
7316;SDS011;3699;51.462;6.696;2024-02-26T13:58:00;8.47;;;5.70;;
7316;SDS011;3699;51.462;6.696;2024-02-26T14:00:27;8.80;;;6.13;;
7316;SDS011;3699;51.462;6.696;2024-02-26T14:02:57;7.97;;;6.03;;
7316;SDS011;3699;51.462;6.696;2024-02-26T14:05:24;11.17;;;6.13;;
7316;SDS011;3699;51.462;6.696;2024-02-26T14:07:51;8.57;;;5.47;;
7316;SDS011;3699;51.462;6.696;2024-02-26T14:10:18;8.57;;;6.07;;
7316;SDS011;3699;51.462;6.696;2024-02-26T14:12:46;8.70;;;6.23;;
7316;SDS011;3699;51.462;6.696;2024-02-26T14:15:13;8.57;;;5.33;;
7316;SDS011;3699;51.462;6.696;2024-02-26T14:17:40;12.00;;;5.73;;
7316;SDS011;3699;51.462;6.696;2024-02-26T14:20:08;11.33;;;6.40;;
7316;SDS011;3699;51.462;6.696;2024-02-26T14:22:35;10.00;;;7.37;;
7316;SDS011;3699;51.462;6.696;2024-02-26T14:25:02;7.53;;;5.77;;
7316;SDS011;3699;51.462;6.696;2024-02-26T14:27:29;7.20;;;5.50;;
7316;SDS011;3699;51.462;6.696;2024-02-26T14:29:57;14.00;;;5.47;;
7316;SDS011;3699;51.462;6.696;2024-02-26T14:32:24;7.70;;;5.03;;
7316;SDS011;3699;51.462;6.696;2024-02-26T14:34:51;8.53;;;5.43;;
7316;SDS011;3699;51.462;6.696;2024-02-26T14:37:17;9.73;;;6.30;;
7316;SDS011;3699;51.462;6.696;2024-02-26T14:39:44;9.40;;;6.23;;
7316;SDS011;3699;51.462;6.696;2024-02-26T14:42:12;12.50;;;6.37;;
7316;SDS011;3699;51.462;6.696;2024-02-26T14:44:42;9.23;;;5.87;;
7316;SDS011;3699;51.462;6.696;2024-02-26T14:47:10;7.83;;;5.43;;
7316;SDS011;3699;51.462;6.696;2024-02-26T14:49:37;11.70;;;5.93;;
7316;SDS011;3699;51.462;6.696;2024-02-26T14:52:04;10.93;;;5.73;;
7316;SDS011;3699;51.462;6.696;2024-02-26T14:54:31;8.10;;;5.50;;
7316;SDS011;3699;51.462;6.696;2024-02-26T14:57:02;9.17;;;5.80;;
7316;SDS011;3699;51.462;6.696;2024-02-26T14:59:29;11.27;;;6.47;;
7316;SDS011;3699;51.462;6.696;2024-02-26T15:01:57;8.63;;;5.40;;
7316;SDS011;3699;51.462;6.696;2024-02-26T15:04:26;9.07;;;5.00;;
7316;SDS011;3699;51.462;6.696;2024-02-26T15:06:53;6.80;;;4.97;;
7316;SDS011;3699;51.462;6.696;2024-02-26T15:09:19;6.50;;;5.40;;
7316;SDS011;3699;51.462;6.696;2024-02-26T15:11:47;9.47;;;5.50;;
7316;SDS011;3699;51.462;6.696;2024-02-26T15:14:13;10.70;;;5.70;;